sensor_id;sensor_type;location;lat;lon;timestamp;pressure;altitude;pressure_sealevel;temperature;humidity
57412;BME280;43247;52.828;-8.980;2023-10-09T00:00:49;102246.72;;;13.70;98.40
57412;BME280;43247;52.828;-8.980;2023-10-09T00:01:50;102251.46;;;13.72;98.52
57412;BME280;43247;52.828;-8.980;2023-10-09T00:02:50;102253.06;;;13.73;98.31
57412;BME280;43247;52.828;-8.980;2023-10-09T00:03:50;102252.71;;;13.74;98.50
57412;BME280;43247;52.828;-8.980;2023-10-09T00:04:50;102255.26;;;13.70;98.46
57412;BME280;43247;52.828;-8.980;2023-10-09T00:05:50;102254.09;;;13.75;98.36
57412;BME280;43247;52.828;-8.980;2023-10-09T00:06:50;102256.24;;;13.72;98.81
57412;BME280;43247;52.828;-8.980;2023-10-09T00:07:50;102258.52;;;13.72;98.36
57412;BME280;43247;52.828;-8.980;2023-10-09T00:08:51;102259.11;;;13.71;98.41
57412;BME280;43247;52.828;-8.980;2023-10-09T00:09:52;102260.64;;;13.70;98.32
57412;BME280;43247;52.828;-8.980;2023-10-09T00:10:52;102260.26;;;13.70;98.38
57412;BME280;43247;52.828;-8.980;2023-10-09T00:11:52;102258.46;;;13.69;98.55
57412;BME280;43247;52.828;-8.980;2023-10-09T00:12:53;102253.78;;;13.67;98.63
57412;BME280;43247;52.828;-8.980;2023-10-09T00:13:53;102247.49;;;13.69;98.59
57412;BME280;43247;52.828;-8.980;2023-10-09T00:14:54;102242.58;;;13.67;98.81
57412;BME280;43247;52.828;-8.980;2023-10-09T00:15:54;102237.15;;;13.65;98.63
57412;BME280;43247;52.828;-8.980;2023-10-09T00:16:53;102232.54;;;13.65;98.70
57412;BME280;43247;52.828;-8.980;2023-10-09T00:17:54;102227.99;;;13.75;98.39
57412;BME280;43247;52.828;-8.980;2023-10-09T00:18:54;102230.47;;;13.71;98.41
57412;BME280;43247;52.828;-8.980;2023-10-09T00:19:54;102231.35;;;13.69;98.65
57412;BME280;43247;52.828;-8.980;2023-10-09T00:20:54;102235.44;;;13.69;98.56
57412;BME280;43247;52.828;-8.980;2023-10-09T00:21:54;102240.11;;;13.61;99.04
57412;BME280;43247;52.828;-8.980;2023-10-09T00:22:54;102240.34;;;13.64;98.68
57412;BME280;43247;52.828;-8.980;2023-10-09T00:23:55;102239.84;;;13.65;98.59
57412;BME280;43247;52.828;-8.980;2023-10-09T00:24:55;102239.83;;;13.61;98.73
57412;BME280;43247;52.828;-8.980;2023-10-09T00:25:55;102241.22;;;13.63;98.64
57412;BME280;43247;52.828;-8.980;2023-10-09T00:26:55;102243.02;;;13.65;98.39
57412;BME280;43247;52.828;-8.980;2023-10-09T00:27:55;102246.12;;;13.62;98.51
57412;BME280;43247;52.828;-8.980;2023-10-09T00:28:55;102249.30;;;13.60;98.85
57412;BME280;43247;52.828;-8.980;2023-10-09T00:29:56;102250.38;;;13.59;98.76
57412;BME280;43247;52.828;-8.980;2023-10-09T00:30:56;102253.03;;;13.62;98.66
57412;BME280;43247;52.828;-8.980;2023-10-09T00:31:57;102251.26;;;13.62;98.60
57412;BME280;43247;52.828;-8.980;2023-10-09T00:32:57;102251.33;;;13.59;98.69
57412;BME280;43247;52.828;-8.980;2023-10-09T00:33:57;102249.16;;;13.64;98.56
57412;BME280;43247;52.828;-8.980;2023-10-09T00:34:58;102247.67;;;13.58;98.75
57412;BME280;43247;52.828;-8.980;2023-10-09T00:36:02;102241.00;;;13.59;98.62
57412;BME280;43247;52.828;-8.980;2023-10-09T00:36:58;102237.61;;;13.61;98.67
57412;BME280;43247;52.828;-8.980;2023-10-09T00:37:58;102231.86;;;13.58;98.70
57412;BME280;43247;52.828;-8.980;2023-10-09T00:38:58;102226.34;;;13.60;98.58
57412;BME280;43247;52.828;-8.980;2023-10-09T00:39:58;102222.63;;;13.61;98.65
57412;BME280;43247;52.828;-8.980;2023-10-09T00:40:58;102214.23;;;13.66;98.47
57412;BME280;43247;52.828;-8.980;2023-10-09T00:41:59;102209.75;;;13.60;98.65
57412;BME280;43247;52.828;-8.980;2023-10-09T00:42:59;102204.95;;;13.65;98.53
57412;BME280;43247;52.828;-8.980;2023-10-09T00:43:59;102204.16;;;13.66;98.45
57412;BME280;43247;52.828;-8.980;2023-10-09T00:44:59;102202.50;;;13.60;98.51
57412;BME280;43247;52.828;-8.980;2023-10-09T00:46:00;102202.10;;;13.68;98.36
57412;BME280;43247;52.828;-8.980;2023-10-09T00:46:59;102202.40;;;13.73;98.20
57412;BME280;43247;52.828;-8.980;2023-10-09T00:48:00;102201.30;;;13.73;98.05
57412;BME280;43247;52.828;-8.980;2023-10-09T00:49:01;102202.73;;;13.72;98.14
57412;BME280;43247;52.828;-8.980;2023-10-09T00:50:03;102201.33;;;13.65;98.33
57412;BME280;43247;52.828;-8.980;2023-10-09T00:51:01;102202.36;;;13.62;98.47
57412;BME280;43247;52.828;-8.980;2023-10-09T00:52:02;102203.39;;;13.64;98.49
57412;BME280;43247;52.828;-8.980;2023-10-09T00:53:03;102208.38;;;13.56;98.67
57412;BME280;43247;52.828;-8.980;2023-10-09T00:54:04;102210.80;;;13.60;98.56
57412;BME280;43247;52.828;-8.980;2023-10-09T00:55:03;102212.84;;;13.69;98.25
57412;BME280;43247;52.828;-8.980;2023-10-09T00:56:02;102217.28;;;13.66;98.20
57412;BME280;43247;52.828;-8.980;2023-10-09T00:57:02;102216.66;;;13.64;98.20
57412;BME280;43247;52.828;-8.980;2023-10-09T00:58:03;102215.70;;;13.61;98.30
57412;BME280;43247;52.828;-8.980;2023-10-09T00:59:03;102213.80;;;13.67;98.17
57412;BME280;43247;52.828;-8.980;2023-10-09T01:00:04;102212.65;;;13.57;98.51
57412;BME280;43247;52.828;-8.980;2023-10-09T01:01:04;102213.82;;;13.63;98.28
57412;BME280;43247;52.828;-8.980;2023-10-09T01:02:04;102214.23;;;13.56;98.56
57412;BME280;43247;52.828;-8.980;2023-10-09T01:03:05;102216.01;;;13.58;98.38
57412;BME280;43247;52.828;-8.980;2023-10-09T01:04:05;102217.70;;;13.58;98.40
57412;BME280;43247;52.828;-8.980;2023-10-09T01:05:05;102221.99;;;13.60;98.35
57412;BME280;43247;52.828;-8.980;2023-10-09T01:06:05;102225.39;;;13.61;98.32
57412;BME280;43247;52.828;-8.980;2023-10-09T01:07:05;102225.31;;;13.54;98.40
57412;BME280;43247;52.828;-8.980;2023-10-09T01:08:05;102224.98;;;13.60;98.31
57412;BME280;43247;52.828;-8.980;2023-10-09T01:09:06;102222.53;;;13.56;98.34
57412;BME280;43247;52.828;-8.980;2023-10-09T01:10:07;102223.76;;;13.65;98.08
57412;BME280;43247;52.828;-8.980;2023-10-09T01:11:07;102223.69;;;13.60;98.38
57412;BME280;43247;52.828;-8.980;2023-10-09T01:12:07;102224.72;;;13.60;98.34
57412;BME280;43247;52.828;-8.980;2023-10-09T01:13:07;102223.66;;;13.64;98.19
57412;BME280;43247;52.828;-8.980;2023-10-09T01:14:07;102225.88;;;13.60;98.29
57412;BME280;43247;52.828;-8.980;2023-10-09T01:15:08;102226.03;;;13.56;98.39
57412;BME280;43247;52.828;-8.980;2023-10-09T01:16:07;102227.18;;;13.60;98.29
57412;BME280;43247;52.828;-8.980;2023-10-09T01:17:08;102224.00;;;13.57;98.43
57412;BME280;43247;52.828;-8.980;2023-10-09T01:18:08;102222.51;;;13.55;98.49
57412;BME280;43247;52.828;-8.980;2023-10-09T01:19:09;102221.45;;;13.55;98.39
57412;BME280;43247;52.828;-8.980;2023-10-09T01:20:09;102218.59;;;13.54;98.23
57412;BME280;43247;52.828;-8.980;2023-10-09T01:21:09;102212.58;;;13.54;98.53
57412;BME280;43247;52.828;-8.980;2023-10-09T01:22:09;102210.36;;;13.54;98.43
57412;BME280;43247;52.828;-8.980;2023-10-09T01:23:10;102208.81;;;13.57;98.25
57412;BME280;43247;52.828;-8.980;2023-10-09T01:24:09;102207.05;;;13.52;98.32
57412;BME280;43247;52.828;-8.980;2023-10-09T01:25:09;102206.53;;;13.57;98.31
57412;BME280;43247;52.828;-8.980;2023-10-09T01:26:09;102210.72;;;13.58;98.16
57412;BME280;43247;52.828;-8.980;2023-10-09T01:27:10;102211.38;;;13.53;98.30
57412;BME280;43247;52.828;-8.980;2023-10-09T01:28:10;102213.75;;;13.48;98.49
57412;BME280;43247;52.828;-8.980;2023-10-09T01:29:10;102214.99;;;13.51;98.48
57412;BME280;43247;52.828;-8.980;2023-10-09T01:30:11;102216.72;;;13.56;98.14
57412;BME280;43247;52.828;-8.980;2023-10-09T01:31:11;102217.73;;;13.54;98.22
57412;BME280;43247;52.828;-8.980;2023-10-09T01:32:11;102218.66;;;13.52;98.26
57412;BME280;43247;52.828;-8.980;2023-10-09T01:33:11;102215.38;;;13.54;98.47
57412;BME280;43247;52.828;-8.980;2023-10-09T01:34:11;102215.25;;;13.50;98.45
57412;BME280;43247;52.828;-8.980;2023-10-09T01:35:11;102214.06;;;13.49;98.36
57412;BME280;43247;52.828;-8.980;2023-10-09T01:36:12;102211.60;;;13.55;98.49
57412;BME280;43247;52.828;-8.980;2023-10-09T01:37:13;102214.49;;;13.51;98.32
57412;BME280;43247;52.828;-8.980;2023-10-09T01:38:12;102214.56;;;13.53;98.25
57412;BME280;43247;52.828;-8.980;2023-10-09T01:39:12;102215.83;;;13.52;98.25
57412;BME280;43247;52.828;-8.980;2023-10-09T01:40:13;102216.38;;;13.51;98.45
57412;BME280;43247;52.828;-8.980;2023-10-09T01:41:12;102216.53;;;13.54;98.30
57412;BME280;43247;52.828;-8.980;2023-10-09T01:42:12;102216.29;;;13.57;98.05
57412;BME280;43247;52.828;-8.980;2023-10-09T01:43:13;102214.35;;;13.54;98.06
57412;BME280;43247;52.828;-8.980;2023-10-09T01:44:13;102215.34;;;13.59;97.94
57412;BME280;43247;52.828;-8.980;2023-10-09T01:45:14;102213.40;;;13.60;97.80
57412;BME280;43247;52.828;-8.980;2023-10-09T01:46:13;102207.96;;;13.63;97.78
57412;BME280;43247;52.828;-8.980;2023-10-09T01:47:13;102205.05;;;13.69;97.75
57412;BME280;43247;52.828;-8.980;2023-10-09T01:48:13;102205.20;;;13.69;97.54
57412;BME280;43247;52.828;-8.980;2023-10-09T01:49:14;102205.33;;;13.69;97.61
57412;BME280;43247;52.828;-8.980;2023-10-09T01:50:14;102204.36;;;13.70;97.61
57412;BME280;43247;52.828;-8.980;2023-10-09T01:51:14;102204.33;;;13.69;97.76
57412;BME280;43247;52.828;-8.980;2023-10-09T01:52:14;102202.67;;;13.64;97.94
57412;BME280;43247;52.828;-8.980;2023-10-09T01:53:14;102199.54;;;13.65;97.86
57412;BME280;43247;52.828;-8.980;2023-10-09T01:54:14;102199.71;;;13.66;97.99
57412;BME280;43247;52.828;-8.980;2023-10-09T01:55:15;102200.42;;;13.65;97.94
57412;BME280;43247;52.828;-8.980;2023-10-09T01:56:15;102197.15;;;13.66;97.81
57412;BME280;43247;52.828;-8.980;2023-10-09T01:57:16;102193.95;;;13.68;97.99
57412;BME280;43247;52.828;-8.980;2023-10-09T01:58:16;102189.69;;;13.66;97.64
57412;BME280;43247;52.828;-8.980;2023-10-09T01:59:16;102188.06;;;13.64;97.65
57412;BME280;43247;52.828;-8.980;2023-10-09T02:00:17;102189.55;;;13.66;97.74
57412;BME280;43247;52.828;-8.980;2023-10-09T02:01:17;102188.58;;;13.63;97.83
57412;BME280;43247;52.828;-8.980;2023-10-09T02:02:17;102187.89;;;13.64;97.78
57412;BME280;43247;52.828;-8.980;2023-10-09T02:03:17;102188.66;;;13.66;97.53
57412;BME280;43247;52.828;-8.980;2023-10-09T02:04:17;102186.79;;;13.62;97.83
57412;BME280;43247;52.828;-8.980;2023-10-09T02:05:17;102185.19;;;13.61;98.11
57412;BME280;43247;52.828;-8.980;2023-10-09T02:06:17;102182.56;;;13.63;97.78
57412;BME280;43247;52.828;-8.980;2023-10-09T02:07:18;102179.44;;;13.58;98.09
57412;BME280;43247;52.828;-8.980;2023-10-09T02:08:18;102178.71;;;13.50;98.27
57412;BME280;43247;52.828;-8.980;2023-10-09T02:09:19;102176.65;;;13.64;97.92
57412;BME280;43247;52.828;-8.980;2023-10-09T02:10:20;102175.12;;;13.63;97.75
57412;BME280;43247;52.828;-8.980;2023-10-09T02:11:19;102169.57;;;13.61;97.94
57412;BME280;43247;52.828;-8.980;2023-10-09T02:12:19;102163.16;;;13.52;98.13
57412;BME280;43247;52.828;-8.980;2023-10-09T02:13:20;102160.74;;;13.57;97.89
57412;BME280;43247;52.828;-8.980;2023-10-09T02:14:20;102158.77;;;13.54;98.23
57412;BME280;43247;52.828;-8.980;2023-10-09T02:15:20;102157.71;;;13.55;98.32
57412;BME280;43247;52.828;-8.980;2023-10-09T02:16:20;102155.32;;;13.51;98.24
57412;BME280;43247;52.828;-8.980;2023-10-09T02:17:20;102154.23;;;13.47;98.35
57412;BME280;43247;52.828;-8.980;2023-10-09T02:18:21;102152.80;;;13.49;98.47
57412;BME280;43247;52.828;-8.980;2023-10-09T02:19:21;102155.16;;;13.49;98.38
57412;BME280;43247;52.828;-8.980;2023-10-09T02:20:21;102157.25;;;13.50;98.38
57412;BME280;43247;52.828;-8.980;2023-10-09T02:21:21;102158.59;;;13.51;98.14
57412;BME280;43247;52.828;-8.980;2023-10-09T02:22:21;102162.94;;;13.46;98.50
57412;BME280;43247;52.828;-8.980;2023-10-09T02:23:21;102165.31;;;13.51;98.29
57412;BME280;43247;52.828;-8.980;2023-10-09T02:24:21;102168.54;;;13.52;98.17
57412;BME280;43247;52.828;-8.980;2023-10-09T02:25:23;102166.34;;;13.49;98.21
57412;BME280;43247;52.828;-8.980;2023-10-09T02:26:22;102164.27;;;13.47;98.28
57412;BME280;43247;52.828;-8.980;2023-10-09T02:27:22;102162.92;;;13.48;98.21
57412;BME280;43247;52.828;-8.980;2023-10-09T02:28:22;102165.36;;;13.48;98.33
57412;BME280;43247;52.828;-8.980;2023-10-09T02:29:22;102172.90;;;13.50;98.30
57412;BME280;43247;52.828;-8.980;2023-10-09T02:30:22;102181.12;;;13.48;98.33
57412;BME280;43247;52.828;-8.980;2023-10-09T02:31:22;102189.83;;;13.51;98.25
57412;BME280;43247;52.828;-8.980;2023-10-09T02:32:23;102198.11;;;13.50;98.28
57412;BME280;43247;52.828;-8.980;2023-10-09T02:33:23;102202.15;;;13.46;98.32
57412;BME280;43247;52.828;-8.980;2023-10-09T02:34:23;102207.10;;;13.45;98.34
57412;BME280;43247;52.828;-8.980;2023-10-09T02:35:24;102209.97;;;13.48;98.23
57412;BME280;43247;52.828;-8.980;2023-10-09T02:36:24;102211.99;;;13.41;98.27
57412;BME280;43247;52.828;-8.980;2023-10-09T02:37:24;102211.95;;;13.41;98.48
57412;BME280;43247;52.828;-8.980;2023-10-09T02:38:24;102211.86;;;13.48;98.15
57412;BME280;43247;52.828;-8.980;2023-10-09T02:39:24;102209.41;;;13.40;98.40
57412;BME280;43247;52.828;-8.980;2023-10-09T02:40:27;102207.64;;;13.38;98.54
57412;BME280;43247;52.828;-8.980;2023-10-09T02:41:25;102204.00;;;13.39;98.54
57412;BME280;43247;52.828;-8.980;2023-10-09T02:42:25;102198.24;;;13.38;98.48
57412;BME280;43247;52.828;-8.980;2023-10-09T02:43:25;102194.73;;;13.41;98.27
57412;BME280;43247;52.828;-8.980;2023-10-09T02:44:25;102193.34;;;13.42;98.32
57412;BME280;43247;52.828;-8.980;2023-10-09T02:45:25;102195.54;;;13.42;98.29
57412;BME280;43247;52.828;-8.980;2023-10-09T02:46:26;102200.70;;;13.37;98.56
57412;BME280;43247;52.828;-8.980;2023-10-09T02:47:26;102205.75;;;13.37;98.48
57412;BME280;43247;52.828;-8.980;2023-10-09T02:48:26;102209.43;;;13.40;98.37
57412;BME280;43247;52.828;-8.980;2023-10-09T02:49:26;102208.60;;;13.43;98.22
57412;BME280;43247;52.828;-8.980;2023-10-09T02:50:27;102205.87;;;13.39;98.40
57412;BME280;43247;52.828;-8.980;2023-10-09T02:51:27;102203.57;;;13.42;98.38
57412;BME280;43247;52.828;-8.980;2023-10-09T02:52:27;102201.68;;;13.38;98.54
57412;BME280;43247;52.828;-8.980;2023-10-09T02:53:27;102201.57;;;13.37;98.37
57412;BME280;43247;52.828;-8.980;2023-10-09T02:54:27;102205.18;;;13.34;98.48
57412;BME280;43247;52.828;-8.980;2023-10-09T02:55:27;102203.84;;;13.41;98.29
57412;BME280;43247;52.828;-8.980;2023-10-09T02:56:27;102205.96;;;13.36;98.38
57412;BME280;43247;52.828;-8.980;2023-10-09T02:57:28;102209.15;;;13.33;98.65
57412;BME280;43247;52.828;-8.980;2023-10-09T02:58:29;102204.94;;;13.44;98.28
57412;BME280;43247;52.828;-8.980;2023-10-09T02:59:28;102198.85;;;13.51;97.94
57412;BME280;43247;52.828;-8.980;2023-10-09T03:00:28;102193.15;;;13.48;97.98
57412;BME280;43247;52.828;-8.980;2023-10-09T03:01:29;102189.11;;;13.51;97.82
57412;BME280;43247;52.828;-8.980;2023-10-09T03:02:29;102189.83;;;13.50;97.79
57412;BME280;43247;52.828;-8.980;2023-10-09T03:03:29;102193.06;;;13.46;97.89
57412;BME280;43247;52.828;-8.980;2023-10-09T03:04:29;102194.39;;;13.46;97.84
57412;BME280;43247;52.828;-8.980;2023-10-09T03:05:29;102191.09;;;13.44;97.89
57412;BME280;43247;52.828;-8.980;2023-10-09T03:06:30;102185.04;;;13.47;97.87
57412;BME280;43247;52.828;-8.980;2023-10-09T03:07:30;102179.51;;;13.39;98.19
57412;BME280;43247;52.828;-8.980;2023-10-09T03:08:30;102172.66;;;13.38;98.01
57412;BME280;43247;52.828;-8.980;2023-10-09T03:09:31;102169.83;;;13.32;98.39
57412;BME280;43247;52.828;-8.980;2023-10-09T03:10:31;102171.87;;;13.31;98.24
57412;BME280;43247;52.828;-8.980;2023-10-09T03:11:31;102173.49;;;13.31;98.29
57412;BME280;43247;52.828;-8.980;2023-10-09T03:12:31;102171.97;;;13.38;97.87
57412;BME280;43247;52.828;-8.980;2023-10-09T03:13:31;102173.02;;;13.33;98.17
57412;BME280;43247;52.828;-8.980;2023-10-09T03:14:33;102173.59;;;13.27;98.13
57412;BME280;43247;52.828;-8.980;2023-10-09T03:15:32;102172.25;;;13.30;98.08
57412;BME280;43247;52.828;-8.980;2023-10-09T03:16:32;102174.20;;;13.26;98.20
57412;BME280;43247;52.828;-8.980;2023-10-09T03:17:32;102172.22;;;13.24;98.11
57412;BME280;43247;52.828;-8.980;2023-10-09T03:18:33;102172.05;;;13.21;98.32
57412;BME280;43247;52.828;-8.980;2023-10-09T03:19:33;102174.59;;;13.17;98.43
57412;BME280;43247;52.828;-8.980;2023-10-09T03:20:33;102173.15;;;13.17;98.26
57412;BME280;43247;52.828;-8.980;2023-10-09T03:21:33;102170.52;;;13.21;98.26
57412;BME280;43247;52.828;-8.980;2023-10-09T03:22:33;102169.20;;;13.19;98.32
57412;BME280;43247;52.828;-8.980;2023-10-09T03:23:33;102166.31;;;13.19;98.18
57412;BME280;43247;52.828;-8.980;2023-10-09T03:24:34;102164.87;;;13.18;98.23
57412;BME280;43247;52.828;-8.980;2023-10-09T03:25:34;102165.18;;;13.20;98.09
57412;BME280;43247;52.828;-8.980;2023-10-09T03:26:34;102163.48;;;13.16;98.07
57412;BME280;43247;52.828;-8.980;2023-10-09T03:27:34;102164.73;;;13.15;98.04
57412;BME280;43247;52.828;-8.980;2023-10-09T03:28:34;102166.04;;;13.14;98.09
57412;BME280;43247;52.828;-8.980;2023-10-09T03:29:34;102171.05;;;13.11;98.19
57412;BME280;43247;52.828;-8.980;2023-10-09T03:30:36;102172.29;;;13.17;98.35
57412;BME280;43247;52.828;-8.980;2023-10-09T03:31:35;102173.97;;;13.22;97.83
57412;BME280;43247;52.828;-8.980;2023-10-09T03:32:35;102175.76;;;13.32;97.69
57412;BME280;43247;52.828;-8.980;2023-10-09T03:33:35;102174.38;;;13.30;97.52
57412;BME280;43247;52.828;-8.980;2023-10-09T03:34:35;102170.04;;;13.18;97.54
57412;BME280;43247;52.828;-8.980;2023-10-09T03:35:35;102171.55;;;13.23;97.45
57412;BME280;43247;52.828;-8.980;2023-10-09T03:36:36;102171.28;;;13.25;97.79
57412;BME280;43247;52.828;-8.980;2023-10-09T03:37:36;102170.76;;;13.22;97.82
57412;BME280;43247;52.828;-8.980;2023-10-09T03:38:36;102168.48;;;13.20;97.69
57412;BME280;43247;52.828;-8.980;2023-10-09T03:39:37;102169.18;;;13.24;97.46
57412;BME280;43247;52.828;-8.980;2023-10-09T03:40:40;102168.59;;;13.29;97.21
57412;BME280;43247;52.828;-8.980;2023-10-09T03:41:37;102169.61;;;13.22;97.67
57412;BME280;43247;52.828;-8.980;2023-10-09T03:42:38;102168.42;;;13.24;97.47
57412;BME280;43247;52.828;-8.980;2023-10-09T03:43:38;102166.52;;;13.21;97.45
57412;BME280;43247;52.828;-8.980;2023-10-09T03:44:38;102165.69;;;13.25;97.88
57412;BME280;43247;52.828;-8.980;2023-10-09T03:45:38;102162.33;;;13.27;97.49
57412;BME280;43247;52.828;-8.980;2023-10-09T03:46:38;102157.78;;;13.21;97.48
57412;BME280;43247;52.828;-8.980;2023-10-09T03:47:38;102154.96;;;13.19;97.89
57412;BME280;43247;52.828;-8.980;2023-10-09T03:48:39;102152.95;;;13.19;97.61
57412;BME280;43247;52.828;-8.980;2023-10-09T03:49:39;102157.14;;;13.16;97.57
57412;BME280;43247;52.828;-8.980;2023-10-09T03:50:39;102159.34;;;13.15;97.46
57412;BME280;43247;52.828;-8.980;2023-10-09T03:51:39;102160.37;;;13.17;97.50
57412;BME280;43247;52.828;-8.980;2023-10-09T03:52:39;102161.09;;;13.16;97.49
57412;BME280;43247;52.828;-8.980;2023-10-09T03:53:39;102163.99;;;13.19;97.77
57412;BME280;43247;52.828;-8.980;2023-10-09T03:54:40;102164.65;;;13.11;97.89
57412;BME280;43247;52.828;-8.980;2023-10-09T03:55:40;102167.58;;;13.12;98.01
57412;BME280;43247;52.828;-8.980;2023-10-09T03:56:40;102169.13;;;13.11;97.61
57412;BME280;43247;52.828;-8.980;2023-10-09T03:57:40;102169.11;;;13.11;97.67
57412;BME280;43247;52.828;-8.980;2023-10-09T03:58:41;102170.43;;;13.09;97.85
57412;BME280;43247;52.828;-8.980;2023-10-09T03:59:40;102166.86;;;13.10;97.77
57412;BME280;43247;52.828;-8.980;2023-10-09T04:00:40;102171.26;;;13.06;98.15
57412;BME280;43247;52.828;-8.980;2023-10-09T04:01:41;102171.21;;;13.09;98.07
57412;BME280;43247;52.828;-8.980;2023-10-09T04:02:41;102169.64;;;13.06;98.07
57412;BME280;43247;52.828;-8.980;2023-10-09T04:03:41;102169.16;;;13.10;97.92
57412;BME280;43247;52.828;-8.980;2023-10-09T04:04:42;102170.43;;;13.03;98.19
57412;BME280;43247;52.828;-8.980;2023-10-09T04:05:42;102171.36;;;13.10;97.86
57412;BME280;43247;52.828;-8.980;2023-10-09T04:06:41;102173.95;;;13.06;97.88
57412;BME280;43247;52.828;-8.980;2023-10-09T04:07:42;102172.67;;;13.05;97.87
57412;BME280;43247;52.828;-8.980;2023-10-09T04:08:42;102171.33;;;13.08;98.05
57412;BME280;43247;52.828;-8.980;2023-10-09T04:09:42;102167.84;;;13.04;98.02
57412;BME280;43247;52.828;-8.980;2023-10-09T04:10:42;102167.50;;;13.02;98.49
57412;BME280;43247;52.828;-8.980;2023-10-09T04:11:42;102170.04;;;13.00;98.20
57412;BME280;43247;52.828;-8.980;2023-10-09T04:12:42;102171.51;;;12.97;98.47
57412;BME280;43247;52.828;-8.980;2023-10-09T04:13:44;102171.06;;;12.94;98.33
57412;BME280;43247;52.828;-8.980;2023-10-09T04:14:43;102168.76;;;12.96;98.59
57412;BME280;43247;52.828;-8.980;2023-10-09T04:15:43;102168.33;;;12.98;98.07
57412;BME280;43247;52.828;-8.980;2023-10-09T04:16:44;102168.25;;;13.02;97.95
57412;BME280;43247;52.828;-8.980;2023-10-09T04:17:44;102168.40;;;13.00;97.97
57412;BME280;43247;52.828;-8.980;2023-10-09T04:18:44;102166.32;;;12.94;98.50
57412;BME280;43247;52.828;-8.980;2023-10-09T04:19:44;102166.27;;;12.95;98.14
57412;BME280;43247;52.828;-8.980;2023-10-09T04:20:44;102166.96;;;12.94;98.18
57412;BME280;43247;52.828;-8.980;2023-10-09T04:21:44;102170.37;;;12.92;98.41
57412;BME280;43247;52.828;-8.980;2023-10-09T04:22:45;102172.76;;;12.91;98.51
57412;BME280;43247;52.828;-8.980;2023-10-09T04:23:45;102177.46;;;12.91;98.27
57412;BME280;43247;52.828;-8.980;2023-10-09T04:24:45;102179.88;;;12.85;98.48
57412;BME280;43247;52.828;-8.980;2023-10-09T04:25:45;102182.88;;;12.83;98.53
57412;BME280;43247;52.828;-8.980;2023-10-09T04:26:45;102184.58;;;12.89;98.24
57412;BME280;43247;52.828;-8.980;2023-10-09T04:27:45;102182.45;;;12.87;98.11
57412;BME280;43247;52.828;-8.980;2023-10-09T04:28:46;102185.54;;;12.84;98.28
57412;BME280;43247;52.828;-8.980;2023-10-09T04:29:46;102187.80;;;12.83;98.28
57412;BME280;43247;52.828;-8.980;2023-10-09T04:30:46;102191.81;;;12.84;98.20
57412;BME280;43247;52.828;-8.980;2023-10-09T04:31:46;102192.49;;;12.82;98.13
57412;BME280;43247;52.828;-8.980;2023-10-09T04:32:46;102192.42;;;12.83;98.20
57412;BME280;43247;52.828;-8.980;2023-10-09T04:33:46;102191.92;;;12.82;98.20
57412;BME280;43247;52.828;-8.980;2023-10-09T04:34:46;102192.82;;;12.77;98.28
57412;BME280;43247;52.828;-8.980;2023-10-09T04:35:47;102189.54;;;12.77;98.32
57412;BME280;43247;52.828;-8.980;2023-10-09T04:36:47;102185.94;;;12.80;98.11
57412;BME280;43247;52.828;-8.980;2023-10-09T04:37:47;102183.38;;;12.78;98.07
57412;BME280;43247;52.828;-8.980;2023-10-09T04:38:48;102180.71;;;12.82;97.82
57412;BME280;43247;52.828;-8.980;2023-10-09T04:39:47;102181.61;;;12.85;97.74
57412;BME280;43247;52.828;-8.980;2023-10-09T04:40:47;102183.20;;;12.80;97.77
57412;BME280;43247;52.828;-8.980;2023-10-09T04:41:48;102186.46;;;12.71;98.20
57412;BME280;43247;52.828;-8.980;2023-10-09T04:42:48;102189.59;;;12.73;98.06
57412;BME280;43247;52.828;-8.980;2023-10-09T04:43:48;102189.79;;;12.79;97.83
57412;BME280;43247;52.828;-8.980;2023-10-09T04:44:48;102187.93;;;12.67;98.26
57412;BME280;43247;52.828;-8.980;2023-10-09T04:45:48;102188.46;;;12.74;97.91
57412;BME280;43247;52.828;-8.980;2023-10-09T04:46:50;102187.10;;;12.72;97.92
57412;BME280;43247;52.828;-8.980;2023-10-09T04:47:49;102186.80;;;12.70;97.95
57412;BME280;43247;52.828;-8.980;2023-10-09T04:48:50;102184.79;;;12.70;97.73
57412;BME280;43247;52.828;-8.980;2023-10-09T04:49:50;102182.71;;;12.69;97.97
57412;BME280;43247;52.828;-8.980;2023-10-09T04:50:50;102184.11;;;12.70;97.68
57412;BME280;43247;52.828;-8.980;2023-10-09T04:51:50;102183.38;;;12.68;97.73
57412;BME280;43247;52.828;-8.980;2023-10-09T04:52:51;102180.65;;;12.67;97.75
57412;BME280;43247;52.828;-8.980;2023-10-09T04:53:51;102176.15;;;12.65;97.95
57412;BME280;43247;52.828;-8.980;2023-10-09T04:54:51;102171.33;;;12.64;97.68
57412;BME280;43247;52.828;-8.980;2023-10-09T04:55:51;102170.91;;;12.60;97.96
57412;BME280;43247;52.828;-8.980;2023-10-09T04:56:51;102173.88;;;12.57;98.16
57412;BME280;43247;52.828;-8.980;2023-10-09T04:57:51;102175.23;;;12.68;97.64
57412;BME280;43247;52.828;-8.980;2023-10-09T04:58:52;102175.45;;;12.65;97.80
57412;BME280;43247;52.828;-8.980;2023-10-09T04:59:52;102175.19;;;12.64;97.97
57412;BME280;43247;52.828;-8.980;2023-10-09T05:00:52;102178.77;;;12.64;97.81
57412;BME280;43247;52.828;-8.980;2023-10-09T05:01:52;102182.82;;;12.62;97.85
57412;BME280;43247;52.828;-8.980;2023-10-09T05:02:53;102185.74;;;12.58;98.07
57412;BME280;43247;52.828;-8.980;2023-10-09T05:03:52;102185.33;;;12.52;98.17
57412;BME280;43247;52.828;-8.980;2023-10-09T05:04:53;102183.32;;;12.50;98.35
57412;BME280;43247;52.828;-8.980;2023-10-09T05:05:53;102183.55;;;12.54;98.19
57412;BME280;43247;52.828;-8.980;2023-10-09T05:06:53;102186.12;;;12.55;98.23
57412;BME280;43247;52.828;-8.980;2023-10-09T05:07:53;102182.58;;;12.54;98.16
57412;BME280;43247;52.828;-8.980;2023-10-09T05:08:53;102182.53;;;12.56;98.19
57412;BME280;43247;52.828;-8.980;2023-10-09T05:09:54;102180.16;;;12.55;98.10
57412;BME280;43247;52.828;-8.980;2023-10-09T05:10:56;102180.02;;;12.59;97.99